ADDS METAR Data INFO
IDs: Format: Raw Decoded Include TAF

Data at: 2053 UTC 24 Jun 2017

KCZT 242035Z AUTO 08009G17KT 10SM SCT060 SCT110 35/20 A2998 RMK AO2
KCZT 242015Z AUTO 10011G16KT 10SM SCT065 SCT080 SCT100 35/20 A2998 RMK AO2
KCZT 241955Z AUTO 08008G17KT 10SM SCT060 35/20 A3000 RMK AO2 LTG DSNT E
KCZT 241935Z AUTO 05008KT 020V080 10SM SCT050 35/20 A2999 RMK AO2
KCZT 241915Z AUTO 07006G15KT 10SM SCT050 35/21 A3001 RMK AO2
KCZT 241855Z AUTO 06008KT 10SM SCT044 SCT050 SCT075 34/21 A3002 RMK AO2
KCZT 241835Z AUTO 05007KT 030V100 10SM SCT048 SCT060 BKN085 33/21 A3002 RMK AO2
KCZT 241815Z AUTO 10006KT 10SM SCT046 BKN065 BKN075 33/21 A3002 RMK AO2
KCZT 241755Z AUTO 11006KT 10SM SCT044 SCT075 33/21 A3003 RMK AO2
KCZT 241735Z AUTO 10005KT 10SM SCT040 BKN048 33/21 A3003 RMK AO2 LTG DSNT E
KCZT 241715Z AUTO 05004KT 10SM SCT040 BKN070 BKN080 32/21 A3003 RMK AO2
KCZT 241655Z AUTO 09004KT 10SM SCT034 SCT044 SCT055 32/21 A3003 RMK AO2 LTG DSNT NE
KCZT 241635Z AUTO 09005KT 10SM SCT055 31/22 A3002 RMK AO2
KCZT 241615Z AUTO 12007KT 10SM SCT031 SCT060 30/22 A3002 RMK AO2 LTG DSNT NE
KCZT 241555Z AUTO 13005KT 10SM BKN029 30/22 A3001 RMK AO2
KCZT 241535Z AUTO 12006KT 10SM SCT027 SCT034 SCT055 30/22 A3000 RMK AO2 LTG DSNT E
KCZT 241515Z AUTO 15006KT 10SM BKN023 BKN034 BKN055 29/23 A3000 RMK AO2
KCZT 241455Z AUTO 14006KT 10SM BKN021 BKN028 BKN040 29/23 A2999 RMK AO2
KCZT 241435Z AUTO 12007KT 090V150 10SM SCT019 SCT023 29/23 A2997 RMK AO2 LTG DSNT N
KCZT 241415Z AUTO 13008KT 10SM SCT017 28/23 A2996 RMK AO2
KCZT 241355Z AUTO 13006KT 10SM CLR 27/24 A2996 RMK AO2
KCZT 241335Z AUTO 12007KT 7SM CLR 27/24 A2996 RMK AO2
KCZT 241315Z AUTO 12006KT 7SM SCT008 26/24 A2995 RMK AO2
KCZT 241255Z AUTO 12007KT 7SM SCT008 26/24 A2994 RMK AO2
KCZT 241235Z AUTO 12004KT 5SM BR SCT007 25/24 A2993 RMK AO2
KCZT 241215Z AUTO 11006KT 5SM BR SCT007 25/24 A2992 RMK AO2
KCZT 241155Z AUTO 11007KT 7SM CLR 25/24 A2991 RMK AO2
KCZT 241135Z AUTO 11008KT 7SM CLR 26/24 A2991 RMK AO2
KCZT 241115Z AUTO 11006KT 7SM CLR 26/24 A2990 RMK AO2
KCZT 241055Z AUTO 11005KT 7SM CLR 26/24 A2990 RMK AO2
KCZT 241035Z AUTO 12003KT 10SM SCT018 BKN024 26/24 A2991 RMK AO2
KCZT 241015Z AUTO 00000KT 10SM OVC016 27/24 A2992 RMK AO2
KCZT 240955Z AUTO 00000KT 10SM BKN018 BKN023 26/24 A2992 RMK AO2
KCZT 240935Z AUTO 09004KT 10SM BKN016 OVC021 27/24 A2990 RMK AO2
KCZT 240915Z AUTO 00000KT 10SM OVC015 27/24 A2991 RMK AO2
KCZT 240855Z AUTO 00000KT 10SM OVC015 27/24 A2992 RMK AO2 LTG DSNT W
KCZT 240835Z AUTO 03003KT 10SM SCT015 27/23 A2991 RMK AO2
KCZT 240815Z AUTO 11005KT 10SM CLR 27/23 A2989 RMK AO2
KCZT 240755Z AUTO 12005KT 10SM CLR 27/23 A2988 RMK AO2
KCZT 240735Z AUTO 11007KT 10SM CLR 27/23 A2988 RMK AO2 LTG DSNT W
KCZT 240715Z AUTO 11006KT 10SM CLR 27/23 A2989 RMK AO2 LTG DSNT NW
KCZT 240655Z AUTO 12007KT 10SM CLR 28/23 A2988 RMK AO2
KCZT 240635Z AUTO 12007KT 10SM CLR 28/23 A2988 RMK AO2
KCZT 240615Z AUTO 13011G15KT 10SM CLR 28/23 A2988 RMK AO2
KCZT 240555Z AUTO 11009G14KT 10SM CLR 29/23 A2988 RMK AO2
KCZT 240535Z AUTO 11009G14KT 10SM CLR 30/23 A2987 RMK AO2
KCZT 240515Z AUTO 12013G17KT 10SM CLR 30/23 A2986 RMK AO2
KCZT 240455Z AUTO 11009G15KT 10SM CLR 31/23 A2986 RMK AO2
KCZT 240435Z AUTO 12012G20KT 10SM CLR 31/23 A2984 RMK AO2
KCZT 240415Z AUTO 12009G18KT 10SM CLR 32/22 A2982 RMK AO2
KCZT 240355Z AUTO 12015G21KT 10SM CLR 33/23 A2981 RMK AO2
KCZT 240335Z AUTO 13012G21KT 10SM CLR 34/23 A2978 RMK AO2
KCZT 240315Z AUTO 12010G17KT 10SM CLR 34/22 A2977 RMK AO2
KCZT 240255Z AUTO 12012G20KT 10SM CLR 35/22 A2975 RMK AO2
KCZT 240235Z AUTO 13012G22KT 10SM CLR 36/22 A2973 RMK AO2
KCZT 240215Z AUTO 13011G20KT 10SM CLR 36/21 A2971 RMK AO2
KCZT 240155Z AUTO 12006KT 10SM CLR 37/17 A2970 RMK AO2
KCZT 240135Z AUTO 12010G14KT 10SM CLR 38/17 A2969 RMK AO2
KCZT 240115Z AUTO 13010G14KT 10SM CLR 38/17 A2968 RMK AO2
KCZT 240055Z AUTO 11008G15KT 10SM CLR 39/17 A2968 RMK AO2
KCZT 240035Z AUTO 12009G17KT 10SM CLR 40/17 A2967 RMK AO2
KCZT 240015Z AUTO 12011G16KT 10SM CLR 40/17 A2967 RMK AO2
KCZT 232355Z AUTO 12010G18KT 10SM CLR 40/17 A2966 RMK AO2
KCZT 232335Z AUTO 14011KT 10SM SCT095 41/17 A2966 RMK AO2
KCZT 232315Z AUTO 13007G15KT 10SM CLR 41/17 A2966 RMK AO2
KCZT 232255Z AUTO 11007KT 10SM CLR 41/17 A2967 RMK AO2
KCZT 232235Z AUTO 09012G16KT 10SM CLR 41/18 A2968 RMK AO2
KCZT 232215Z AUTO 14008G17KT 10SM CLR 41/17 A2968 RMK AO2
KCZT 232155Z AUTO 12008G16KT 080V150 10SM CLR 42/18 A2969 RMK AO2
KCZT 232135Z AUTO 13008G18KT 080V150 10SM CLR 41/18 A2969 RMK AO2
KCZT 232115Z AUTO 13008G16KT 10SM CLR 41/18 A2970 RMK AO2
KCZT 232055Z AUTO 16007G18KT 10SM CLR 41/18 A2971 RMK AO2
KCZT 232035Z AUTO 16008G17KT 10SM CLR 41/17 A2971 RMK AO2
KCZT 232015Z AUTO 15004G14KT 10SM CLR 41/17 A2972 RMK AO2
KCZT 231955Z AUTO 13008G14KT 10SM CLR 41/18 A2973 RMK AO2
KCZT 231935Z AUTO 18004G16KT 10SM CLR 40/18 A2974 RMK AO2
KCZT 231915Z AUTO 17008KT 10SM CLR 40/19 A2974 RMK AO2
KCZT 231855Z AUTO 13004KT 10SM CLR 40/19 A2974 RMK AO2
KCZT 231835Z AUTO 00000KT 10SM CLR 38/20 A2975 RMK AO2
KCZT 231815Z AUTO 17008KT 10SM CLR 38/20 A2976 RMK AO2
KCZT 231755Z AUTO 12007KT 10SM CLR 37/20 A2976 RMK AO2
KCZT 231735Z AUTO 11009KT 10SM CLR 37/20 A2976 RMK AO2
KCZT 231715Z AUTO 06003KT 10SM CLR 36/20 A2977 RMK AO2
KCZT 231655Z AUTO 16006KT 10SM CLR 36/20 A2976 RMK AO2
KCZT 231635Z AUTO 15006KT 10SM CLR 35/20 A2976 RMK AO2
KCZT 231615Z AUTO 15007G14KT 10SM CLR 34/20 A2976 RMK AO2
KCZT 231555Z AUTO 17007KT 10SM CLR 33/20 A2975 RMK AO2
KCZT 231535Z AUTO 15006KT 10SM CLR 32/20 A2975 RMK AO2
KCZT 231515Z AUTO 16007KT 7SM CLR 31/20 A2976 RMK AO2
KCZT 231455Z AUTO 18006KT 10SM CLR 31/20 A2976 RMK AO2
KCZT 231435Z AUTO 14006KT 10SM CLR 30/20 A2976 RMK AO2
KCZT 231415Z AUTO 15008KT 10SM CLR 30/20 A2975 RMK AO2
KCZT 231355Z AUTO 15007KT 10SM CLR 28/21 A2974 RMK AO2
KCZT 231335Z AUTO 14006KT 10SM CLR 27/20 A2974 RMK AO2
KCZT 231315Z AUTO 11004KT 10SM CLR 26/20 A2974 RMK AO2
KCZT 231255Z AUTO 09003KT 10SM CLR 26/20 A2974 RMK AO2
KCZT 231235Z AUTO 00000KT 10SM CLR 25/19 A2973 RMK AO2
KCZT 231215Z AUTO 12003KT 10SM CLR 25/19 A2971 RMK AO2
KCZT 231155Z AUTO 12004KT 10SM CLR 25/19 A2970 RMK AO2
KCZT 231135Z AUTO 12005KT 10SM CLR 25/19 A2970 RMK AO2
KCZT 231115Z AUTO 12003KT 10SM CLR 25/19 A2969 RMK AO2
KCZT 231055Z AUTO 11005KT 10SM CLR 25/19 A2968 RMK AO2
KCZT 231035Z AUTO 10004KT 10SM CLR 26/18 A2968 RMK AO2
KCZT 231015Z AUTO 11004KT 10SM CLR 26/18 A2968 RMK AO2
KCZT 230955Z AUTO 11004KT 10SM CLR 26/18 A2967 RMK AO2
KCZT 230935Z AUTO 12004KT 10SM CLR 27/18 A2967 RMK AO2
KCZT 230915Z AUTO 12005KT 10SM CLR 27/18 A2967 RMK AO2
KCZT 230855Z AUTO 11004KT 10SM CLR 27/19 A2966 RMK AO2


Page loaded:  20:53 UTC  |   01:53 PM Pacific  |   02:53 PM Mountain  |   03:53 PM Central  |   04:53 PM Eastern

 

ADVISORIES

FORECASTS

FORECASTS

OBSERVATIONS

USER TOOLS

ABOUT US